sensor_id;sensor_type;location;lat;lon;timestamp;temperature;humidity
60293;DHT22;52402;52.670;6.750;2024-02-15T00:00:12;11.30;99.90
60293;DHT22;52402;52.670;6.750;2024-02-15T00:02:38;11.20;99.90
60293;DHT22;52402;52.670;6.750;2024-02-15T00:05:04;11.30;99.90
60293;DHT22;52402;52.670;6.750;2024-02-15T00:07:30;11.20;99.90
60293;DHT22;52402;52.670;6.750;2024-02-15T00:09:57;11.20;99.90
60293;DHT22;52402;52.670;6.750;2024-02-15T00:12:24;11.20;99.90
60293;DHT22;52402;52.670;6.750;2024-02-15T00:14:50;11.20;99.90
60293;DHT22;52402;52.670;6.750;2024-02-15T00:17:15;11.20;99.90
60293;DHT22;52402;52.670;6.750;2024-02-15T00:19:41;11.20;99.90
60293;DHT22;52402;52.670;6.750;2024-02-15T00:22:07;11.20;99.90
60293;DHT22;52402;52.670;6.750;2024-02-15T00:24:32;11.20;99.90
60293;DHT22;52402;52.670;6.750;2024-02-15T00:26:58;11.20;99.90
60293;DHT22;52402;52.670;6.750;2024-02-15T00:29:31;11.10;99.90
60293;DHT22;52402;52.670;6.750;2024-02-15T00:31:57;11.10;99.90
60293;DHT22;52402;52.670;6.750;2024-02-15T00:34:22;11.10;99.90
60293;DHT22;52402;52.670;6.750;2024-02-15T00:36:48;11.10;99.90
60293;DHT22;52402;52.670;6.750;2024-02-15T00:39:13;11.10;99.90
60293;DHT22;52402;52.670;6.750;2024-02-15T00:41:40;11.10;99.90
60293;DHT22;52402;52.670;6.750;2024-02-15T00:44:08;11.10;99.90
60293;DHT22;52402;52.670;6.750;2024-02-15T00:46:36;11.10;99.90
60293;DHT22;52402;52.670;6.750;2024-02-15T00:49:03;11.10;99.90
60293;DHT22;52402;52.670;6.750;2024-02-15T00:51:32;11.10;99.90
60293;DHT22;52402;52.670;6.750;2024-02-15T00:53:58;11.00;99.90
60293;DHT22;52402;52.670;6.750;2024-02-15T00:56:24;11.10;99.90
60293;DHT22;52402;52.670;6.750;2024-02-15T00:58:50;11.00;99.90
60293;DHT22;52402;52.670;6.750;2024-02-15T01:01:15;11.10;99.90
60293;DHT22;52402;52.670;6.750;2024-02-15T01:03:41;11.10;99.90
60293;DHT22;52402;52.670;6.750;2024-02-15T01:06:07;11.00;99.90
60293;DHT22;52402;52.670;6.750;2024-02-15T01:08:34;11.10;99.90
60293;DHT22;52402;52.670;6.750;2024-02-15T01:11:06;11.10;99.90
60293;DHT22;52402;52.670;6.750;2024-02-15T01:13:33;11.00;99.90
60293;DHT22;52402;52.670;6.750;2024-02-15T01:16:01;11.10;99.90
60293;DHT22;52402;52.670;6.750;2024-02-15T01:18:30;11.10;99.90
60293;DHT22;52402;52.670;6.750;2024-02-15T01:20:57;11.00;99.90
60293;DHT22;52402;52.670;6.750;2024-02-15T01:23:23;11.10;99.90
60293;DHT22;52402;52.670;6.750;2024-02-15T01:25:49;11.10;99.90
60293;DHT22;52402;52.670;6.750;2024-02-15T01:28:14;11.10;99.90
60293;DHT22;52402;52.670;6.750;2024-02-15T01:30:59;11.10;99.90
60293;DHT22;52402;52.670;6.750;2024-02-15T01:33:28;11.10;99.90
60293;DHT22;52402;52.670;6.750;2024-02-15T01:35:53;11.00;99.90
60293;DHT22;52402;52.670;6.750;2024-02-15T01:38:38;11.10;99.90
60293;DHT22;52402;52.670;6.750;2024-02-15T01:41:04;11.00;99.90
60293;DHT22;52402;52.670;6.750;2024-02-15T01:43:31;11.10;99.90
60293;DHT22;52402;52.670;6.750;2024-02-15T01:45:56;11.20;99.90
60293;DHT22;52402;52.670;6.750;2024-02-15T01:48:25;11.10;99.90
60293;DHT22;52402;52.670;6.750;2024-02-15T01:50:51;11.10;99.90
60293;DHT22;52402;52.670;6.750;2024-02-15T01:53:17;11.10;99.90
60293;DHT22;52402;52.670;6.750;2024-02-15T01:55:50;11.10;99.90
60293;DHT22;52402;52.670;6.750;2024-02-15T01:58:34;11.10;99.90
60293;DHT22;52402;52.670;6.750;2024-02-15T02:01:01;11.10;99.90
60293;DHT22;52402;52.670;6.750;2024-02-15T02:03:27;11.10;99.90
60293;DHT22;52402;52.670;6.750;2024-02-15T02:05:53;11.10;99.90
60293;DHT22;52402;52.670;6.750;2024-02-15T02:08:18;11.10;99.90
60293;DHT22;52402;52.670;6.750;2024-02-15T02:10:44;11.00;99.90
60293;DHT22;52402;52.670;6.750;2024-02-15T02:13:11;11.00;99.90
60293;DHT22;52402;52.670;6.750;2024-02-15T02:15:37;11.00;99.90
60293;DHT22;52402;52.670;6.750;2024-02-15T02:18:04;11.10;99.90
60293;DHT22;52402;52.670;6.750;2024-02-15T02:20:34;11.10;99.90
60293;DHT22;52402;52.670;6.750;2024-02-15T02:23:08;11.10;99.90
60293;DHT22;52402;52.670;6.750;2024-02-15T02:25:35;11.10;99.90
60293;DHT22;52402;52.670;6.750;2024-02-15T02:28:05;11.10;99.90
60293;DHT22;52402;52.670;6.750;2024-02-15T02:30:32;11.10;99.90
60293;DHT22;52402;52.670;6.750;2024-02-15T02:32:58;11.10;99.90
60293;DHT22;52402;52.670;6.750;2024-02-15T02:35:25;11.10;99.90
60293;DHT22;52402;52.670;6.750;2024-02-15T02:37:51;11.20;99.90
60293;DHT22;52402;52.670;6.750;2024-02-15T02:40:18;11.10;99.90
60293;DHT22;52402;52.670;6.750;2024-02-15T02:42:52;11.20;99.90
60293;DHT22;52402;52.670;6.750;2024-02-15T02:45:19;11.20;99.90
60293;DHT22;52402;52.670;6.750;2024-02-15T02:47:49;11.10;99.90
60293;DHT22;52402;52.670;6.750;2024-02-15T02:50:15;11.20;99.90
60293;DHT22;52402;52.670;6.750;2024-02-15T02:52:41;11.20;99.90
60293;DHT22;52402;52.670;6.750;2024-02-15T02:55:07;11.20;99.90
60293;DHT22;52402;52.670;6.750;2024-02-15T02:57:35;11.20;99.90
60293;DHT22;52402;52.670;6.750;2024-02-15T03:00:07;11.20;99.90
60293;DHT22;52402;52.670;6.750;2024-02-15T03:02:36;11.20;99.90
60293;DHT22;52402;52.670;6.750;2024-02-15T03:05:04;11.20;99.90
60293;DHT22;52402;52.670;6.750;2024-02-15T03:07:32;11.20;99.90
60293;DHT22;52402;52.670;6.750;2024-02-15T03:09:59;11.20;99.90
60293;DHT22;52402;52.670;6.750;2024-02-15T03:12:24;11.20;99.90
60293;DHT22;52402;52.670;6.750;2024-02-15T03:14:52;11.30;99.90
60293;DHT22;52402;52.670;6.750;2024-02-15T03:17:17;11.30;99.90
60293;DHT22;52402;52.670;6.750;2024-02-15T03:19:43;11.30;99.90
60293;DHT22;52402;52.670;6.750;2024-02-15T03:22:08;11.30;99.90
60293;DHT22;52402;52.670;6.750;2024-02-15T03:24:34;11.30;99.90
60293;DHT22;52402;52.670;6.750;2024-02-15T03:27:00;11.30;99.90
60293;DHT22;52402;52.670;6.750;2024-02-15T03:29:25;11.30;99.90
60293;DHT22;52402;52.670;6.750;2024-02-15T03:31:51;11.30;99.90
60293;DHT22;52402;52.670;6.750;2024-02-15T03:34:19;11.30;99.90
60293;DHT22;52402;52.670;6.750;2024-02-15T03:36:47;11.30;99.90
60293;DHT22;52402;52.670;6.750;2024-02-15T03:39:19;11.30;99.90
60293;DHT22;52402;52.670;6.750;2024-02-15T03:41:45;11.30;99.90
60293;DHT22;52402;52.670;6.750;2024-02-15T03:44:14;11.40;99.90
60293;DHT22;52402;52.670;6.750;2024-02-15T03:46:40;11.40;99.90
60293;DHT22;52402;52.670;6.750;2024-02-15T03:49:06;11.40;99.90
60293;DHT22;52402;52.670;6.750;2024-02-15T03:51:34;11.40;99.90
60293;DHT22;52402;52.670;6.750;2024-02-15T03:54:00;11.40;99.90
60293;DHT22;52402;52.670;6.750;2024-02-15T03:56:25;11.40;99.90
60293;DHT22;52402;52.670;6.750;2024-02-15T03:58:51;11.40;99.90
60293;DHT22;52402;52.670;6.750;2024-02-15T04:01:17;11.40;99.90
60293;DHT22;52402;52.670;6.750;2024-02-15T04:03:42;11.40;99.90
60293;DHT22;52402;52.670;6.750;2024-02-15T04:06:08;11.40;99.90
60293;DHT22;52402;52.670;6.750;2024-02-15T04:08:36;11.40;99.90
60293;DHT22;52402;52.670;6.750;2024-02-15T04:11:05;11.40;99.90
60293;DHT22;52402;52.670;6.750;2024-02-15T04:13:31;11.40;99.90
60293;DHT22;52402;52.670;6.750;2024-02-15T04:15:57;11.40;99.90
60293;DHT22;52402;52.670;6.750;2024-02-15T04:18:23;11.40;99.90
60293;DHT22;52402;52.670;6.750;2024-02-15T04:20:49;11.40;99.90
60293;DHT22;52402;52.670;6.750;2024-02-15T04:23:14;11.40;99.90
60293;DHT22;52402;52.670;6.750;2024-02-15T04:25:40;11.40;99.90
60293;DHT22;52402;52.670;6.750;2024-02-15T04:28:06;11.40;99.90
60293;DHT22;52402;52.670;6.750;2024-02-15T04:30:34;11.40;99.90
60293;DHT22;52402;52.670;6.750;2024-02-15T04:33:04;11.40;99.90
60293;DHT22;52402;52.670;6.750;2024-02-15T04:35:30;11.40;99.90
60293;DHT22;52402;52.670;6.750;2024-02-15T04:37:56;11.40;99.90
60293;DHT22;52402;52.670;6.750;2024-02-15T04:40:23;11.40;99.90
60293;DHT22;52402;52.670;6.750;2024-02-15T04:42:48;11.40;99.90
60293;DHT22;52402;52.670;6.750;2024-02-15T04:45:14;11.50;99.90
60293;DHT22;52402;52.670;6.750;2024-02-15T04:47:41;11.40;99.90
60293;DHT22;52402;52.670;6.750;2024-02-15T04:50:07;11.50;99.90
60293;DHT22;52402;52.670;6.750;2024-02-15T04:52:34;11.40;99.90
60293;DHT22;52402;52.670;6.750;2024-02-15T04:55:00;11.40;99.90
60293;DHT22;52402;52.670;6.750;2024-02-15T04:57:26;11.40;99.90
60293;DHT22;52402;52.670;6.750;2024-02-15T04:59:54;11.40;99.90
60293;DHT22;52402;52.670;6.750;2024-02-15T05:02:20;11.40;99.90
60293;DHT22;52402;52.670;6.750;2024-02-15T05:04:47;11.40;99.90
60293;DHT22;52402;52.670;6.750;2024-02-15T05:07:13;11.40;99.90
60293;DHT22;52402;52.670;6.750;2024-02-15T05:09:42;11.40;99.90
60293;DHT22;52402;52.670;6.750;2024-02-15T05:12:08;11.40;99.90
60293;DHT22;52402;52.670;6.750;2024-02-15T05:14:33;11.40;99.90
60293;DHT22;52402;52.670;6.750;2024-02-15T05:17:01;11.40;99.90
60293;DHT22;52402;52.670;6.750;2024-02-15T05:19:27;11.30;99.90
60293;DHT22;52402;52.670;6.750;2024-02-15T05:21:53;11.30;99.90
60293;DHT22;52402;52.670;6.750;2024-02-15T05:24:20;11.30;99.90
60293;DHT22;52402;52.670;6.750;2024-02-15T05:26:46;11.30;99.90
60293;DHT22;52402;52.670;6.750;2024-02-15T05:29:15;11.30;99.90
60293;DHT22;52402;52.670;6.750;2024-02-15T05:31:42;11.30;99.90
60293;DHT22;52402;52.670;6.750;2024-02-15T05:34:07;11.30;99.90
60293;DHT22;52402;52.670;6.750;2024-02-15T05:36:34;11.30;99.90
60293;DHT22;52402;52.670;6.750;2024-02-15T05:39:01;11.30;99.90
60293;DHT22;52402;52.670;6.750;2024-02-15T05:41:28;11.30;99.90
60293;DHT22;52402;52.670;6.750;2024-02-15T05:43:55;11.30;99.90
60293;DHT22;52402;52.670;6.750;2024-02-15T05:46:20;11.30;99.90
60293;DHT22;52402;52.670;6.750;2024-02-15T05:48:49;11.20;99.90
60293;DHT22;52402;52.670;6.750;2024-02-15T05:51:15;11.20;99.90
60293;DHT22;52402;52.670;6.750;2024-02-15T05:53:41;11.20;99.90
60293;DHT22;52402;52.670;6.750;2024-02-15T05:56:08;11.20;99.90
60293;DHT22;52402;52.670;6.750;2024-02-15T05:58:34;11.20;99.90
60293;DHT22;52402;52.670;6.750;2024-02-15T06:01:01;11.20;99.90
60293;DHT22;52402;52.670;6.750;2024-02-15T06:03:33;11.20;99.90
60293;DHT22;52402;52.670;6.750;2024-02-15T06:06:02;11.20;99.90
60293;DHT22;52402;52.670;6.750;2024-02-15T06:08:32;11.20;99.90
60293;DHT22;52402;52.670;6.750;2024-02-15T06:10:58;11.20;99.90
60293;DHT22;52402;52.670;6.750;2024-02-15T06:13:25;11.20;99.90
60293;DHT22;52402;52.670;6.750;2024-02-15T06:15:51;11.20;99.90
60293;DHT22;52402;52.670;6.750;2024-02-15T06:18:24;11.20;99.90
60293;DHT22;52402;52.670;6.750;2024-02-15T06:20:52;11.20;99.90
60293;DHT22;52402;52.670;6.750;2024-02-15T06:23:18;11.20;99.90
60293;DHT22;52402;52.670;6.750;2024-02-15T06:25:44;11.20;99.90
60293;DHT22;52402;52.670;6.750;2024-02-15T06:28:10;11.20;99.90
60293;DHT22;52402;52.670;6.750;2024-02-15T06:30:45;11.20;99.90
60293;DHT22;52402;52.670;6.750;2024-02-15T06:33:30;11.20;99.90
60293;DHT22;52402;52.670;6.750;2024-02-15T06:36:14;11.20;99.90
60293;DHT22;52402;52.670;6.750;2024-02-15T06:38:59;11.20;99.90
60293;DHT22;52402;52.670;6.750;2024-02-15T06:41:43;11.20;99.90
60293;DHT22;52402;52.670;6.750;2024-02-15T06:44:09;11.20;99.90
60293;DHT22;52402;52.670;6.750;2024-02-15T06:46:35;11.20;99.90
60293;DHT22;52402;52.670;6.750;2024-02-15T06:49:01;11.20;99.90
60293;DHT22;52402;52.670;6.750;2024-02-15T06:51:26;11.20;99.90
60293;DHT22;52402;52.670;6.750;2024-02-15T06:53:52;11.30;99.90
60293;DHT22;52402;52.670;6.750;2024-02-15T06:56:21;11.30;99.90
60293;DHT22;52402;52.670;6.750;2024-02-15T06:58:47;11.30;99.90
60293;DHT22;52402;52.670;6.750;2024-02-15T07:01:13;11.30;99.90
60293;DHT22;52402;52.670;6.750;2024-02-15T07:03:44;11.30;99.90
60293;DHT22;52402;52.670;6.750;2024-02-15T07:06:11;11.30;99.90
60293;DHT22;52402;52.670;6.750;2024-02-15T07:08:39;11.30;99.90
60293;DHT22;52402;52.670;6.750;2024-02-15T07:11:06;11.30;99.90
60293;DHT22;52402;52.670;6.750;2024-02-15T07:13:35;11.30;99.90
60293;DHT22;52402;52.670;6.750;2024-02-15T07:16:01;11.30;99.90
60293;DHT22;52402;52.670;6.750;2024-02-15T07:18:27;11.30;99.90
60293;DHT22;52402;52.670;6.750;2024-02-15T07:20:53;11.20;99.90
60293;DHT22;52402;52.670;6.750;2024-02-15T07:23:19;11.30;99.90
60293;DHT22;52402;52.670;6.750;2024-02-15T07:25:47;11.30;99.90
60293;DHT22;52402;52.670;6.750;2024-02-15T07:28:14;11.30;99.90
60293;DHT22;52402;52.670;6.750;2024-02-15T07:30:39;11.30;99.90
60293;DHT22;52402;52.670;6.750;2024-02-15T07:33:05;11.30;99.90
60293;DHT22;52402;52.670;6.750;2024-02-15T07:35:32;11.30;99.90
60293;DHT22;52402;52.670;6.750;2024-02-15T07:37:58;11.40;99.90
60293;DHT22;52402;52.670;6.750;2024-02-15T07:40:26;11.30;99.90
60293;DHT22;52402;52.670;6.750;2024-02-15T07:42:56;11.30;99.90
60293;DHT22;52402;52.670;6.750;2024-02-15T07:45:23;11.30;99.90
60293;DHT22;52402;52.670;6.750;2024-02-15T07:47:48;11.30;99.90
60293;DHT22;52402;52.670;6.750;2024-02-15T07:50:17;11.30;99.90
60293;DHT22;52402;52.670;6.750;2024-02-15T07:52:48;11.30;99.90
60293;DHT22;52402;52.670;6.750;2024-02-15T07:55:14;11.30;99.90
60293;DHT22;52402;52.670;6.750;2024-02-15T07:57:40;11.30;99.90
60293;DHT22;52402;52.670;6.750;2024-02-15T08:00:07;11.40;99.90
60293;DHT22;52402;52.670;6.750;2024-02-15T08:02:40;11.40;99.90
60293;DHT22;52402;52.670;6.750;2024-02-15T08:05:12;11.40;99.90
60293;DHT22;52402;52.670;6.750;2024-02-15T08:07:43;11.40;99.90
60293;DHT22;52402;52.670;6.750;2024-02-15T08:10:10;11.40;99.90
60293;DHT22;52402;52.670;6.750;2024-02-15T08:12:47;11.40;99.90
60293;DHT22;52402;52.670;6.750;2024-02-15T08:15:18;11.40;99.90
60293;DHT22;52402;52.670;6.750;2024-02-15T08:17:45;11.40;99.90
60293;DHT22;52402;52.670;6.750;2024-02-15T08:20:15;11.40;99.90
60293;DHT22;52402;52.670;6.750;2024-02-15T08:22:46;11.30;99.90
60293;DHT22;52402;52.670;6.750;2024-02-15T08:25:13;11.40;99.90
60293;DHT22;52402;52.670;6.750;2024-02-15T08:27:41;11.40;99.90
60293;DHT22;52402;52.670;6.750;2024-02-15T08:30:11;11.40;99.90
60293;DHT22;52402;52.670;6.750;2024-02-15T08:32:38;11.40;99.90
60293;DHT22;52402;52.670;6.750;2024-02-15T08:35:06;11.40;99.90
60293;DHT22;52402;52.670;6.750;2024-02-15T08:37:32;11.40;99.90
60293;DHT22;52402;52.670;6.750;2024-02-15T08:40:01;11.40;99.90
60293;DHT22;52402;52.670;6.750;2024-02-15T08:42:27;11.40;99.90
60293;DHT22;52402;52.670;6.750;2024-02-15T08:44:52;11.50;99.90
60293;DHT22;52402;52.670;6.750;2024-02-15T08:47:18;11.50;99.90
60293;DHT22;52402;52.670;6.750;2024-02-15T08:49:44;11.40;99.90
60293;DHT22;52402;52.670;6.750;2024-02-15T08:52:09;11.50;99.90
60293;DHT22;52402;52.670;6.750;2024-02-15T08:54:36;11.50;99.90
60293;DHT22;52402;52.670;6.750;2024-02-15T08:57:06;11.50;99.90
60293;DHT22;52402;52.670;6.750;2024-02-15T08:59:32;11.50;99.90
60293;DHT22;52402;52.670;6.750;2024-02-15T09:01:58;11.60;99.90
60293;DHT22;52402;52.670;6.750;2024-02-15T09:04:25;11.60;99.90
60293;DHT22;52402;52.670;6.750;2024-02-15T09:06:51;11.60;99.90
60293;DHT22;52402;52.670;6.750;2024-02-15T09:09:17;11.60;99.90
60293;DHT22;52402;52.670;6.750;2024-02-15T09:11:43;11.60;99.90
60293;DHT22;52402;52.670;6.750;2024-02-15T09:14:08;11.60;99.90
60293;DHT22;52402;52.670;6.750;2024-02-15T09:16:37;11.60;99.90
60293;DHT22;52402;52.670;6.750;2024-02-15T09:19:03;11.60;99.90
60293;DHT22;52402;52.670;6.750;2024-02-15T09:21:28;11.60;99.90
60293;DHT22;52402;52.670;6.750;2024-02-15T09:23:55;11.60;99.90
60293;DHT22;52402;52.670;6.750;2024-02-15T09:26:21;11.70;99.90
60293;DHT22;52402;52.670;6.750;2024-02-15T09:28:47;11.70;99.90
60293;DHT22;52402;52.670;6.750;2024-02-15T09:31:13;11.70;99.90
60293;DHT22;52402;52.670;6.750;2024-02-15T09:33:41;11.70;99.90
60293;DHT22;52402;52.670;6.750;2024-02-15T09:36:07;11.70;99.90
60293;DHT22;52402;52.670;6.750;2024-02-15T09:38:33;11.70;99.90
60293;DHT22;52402;52.670;6.750;2024-02-15T09:40:59;11.70;99.90
60293;DHT22;52402;52.670;6.750;2024-02-15T09:43:25;11.70;99.90
60293;DHT22;52402;52.670;6.750;2024-02-15T09:45:54;11.70;99.90
60293;DHT22;52402;52.670;6.750;2024-02-15T09:48:23;11.70;99.90
60293;DHT22;52402;52.670;6.750;2024-02-15T09:50:52;11.70;99.90
60293;DHT22;52402;52.670;6.750;2024-02-15T09:53:21;11.70;99.90
60293;DHT22;52402;52.670;6.750;2024-02-15T09:55:47;11.70;99.90
60293;DHT22;52402;52.670;6.750;2024-02-15T09:58:14;11.80;99.90
60293;DHT22;52402;52.670;6.750;2024-02-15T10:00:40;11.80;99.90
60293;DHT22;52402;52.670;6.750;2024-02-15T10:03:08;11.80;99.90
60293;DHT22;52402;52.670;6.750;2024-02-15T10:05:35;11.80;99.90
60293;DHT22;52402;52.670;6.750;2024-02-15T10:08:02;11.90;99.90
60293;DHT22;52402;52.670;6.750;2024-02-15T10:10:29;11.90;99.90
60293;DHT22;52402;52.670;6.750;2024-02-15T10:12:55;11.90;99.90
60293;DHT22;52402;52.670;6.750;2024-02-15T10:17:55;12.00;99.90
60293;DHT22;52402;52.670;6.750;2024-02-15T10:20:21;12.00;99.90
60293;DHT22;52402;52.670;6.750;2024-02-15T10:22:49;12.10;99.90
60293;DHT22;52402;52.670;6.750;2024-02-15T10:25:15;12.10;99.90
60293;DHT22;52402;52.670;6.750;2024-02-15T10:27:41;12.10;99.90
60293;DHT22;52402;52.670;6.750;2024-02-15T10:30:17;12.10;99.90
60293;DHT22;52402;52.670;6.750;2024-02-15T10:32:43;12.10;99.90
60293;DHT22;52402;52.670;6.750;2024-02-15T10:35:10;12.10;99.90
60293;DHT22;52402;52.670;6.750;2024-02-15T10:37:41;12.10;99.90
60293;DHT22;52402;52.670;6.750;2024-02-15T10:40:07;12.10;99.90
60293;DHT22;52402;52.670;6.750;2024-02-15T10:42:36;12.10;99.90
60293;DHT22;52402;52.670;6.750;2024-02-15T10:45:03;12.20;99.90
60293;DHT22;52402;52.670;6.750;2024-02-15T10:47:31;12.10;99.90
60293;DHT22;52402;52.670;6.750;2024-02-15T10:49:57;12.20;99.90
60293;DHT22;52402;52.670;6.750;2024-02-15T10:52:25;12.20;99.90
60293;DHT22;52402;52.670;6.750;2024-02-15T10:55:05;12.10;99.90
60293;DHT22;52402;52.670;6.750;2024-02-15T10:57:40;12.10;99.90
60293;DHT22;52402;52.670;6.750;2024-02-15T11:00:09;12.10;99.90
60293;DHT22;52402;52.670;6.750;2024-02-15T11:02:46;12.10;99.90
60293;DHT22;52402;52.670;6.750;2024-02-15T11:05:14;12.10;99.90
60293;DHT22;52402;52.670;6.750;2024-02-15T11:07:46;12.10;99.90
60293;DHT22;52402;52.670;6.750;2024-02-15T11:10:12;12.10;99.90
60293;DHT22;52402;52.670;6.750;2024-02-15T11:12:43;12.00;99.90
60293;DHT22;52402;52.670;6.750;2024-02-15T11:15:10;12.10;99.90
60293;DHT22;52402;52.670;6.750;2024-02-15T11:20:07;12.00;99.90
60293;DHT22;52402;52.670;6.750;2024-02-15T11:22:36;12.10;99.90
60293;DHT22;52402;52.670;6.750;2024-02-15T11:25:03;12.10;99.90
60293;DHT22;52402;52.670;6.750;2024-02-15T11:27:37;12.00;99.90
60293;DHT22;52402;52.670;6.750;2024-02-15T11:30:07;12.10;99.90
60293;DHT22;52402;52.670;6.750;2024-02-15T11:32:49;12.10;99.90
60293;DHT22;52402;52.670;6.750;2024-02-15T11:35:18;12.10;99.90
60293;DHT22;52402;52.670;6.750;2024-02-15T11:42:44;12.10;99.90
60293;DHT22;52402;52.670;6.750;2024-02-15T11:45:10;12.10;99.90
60293;DHT22;52402;52.670;6.750;2024-02-15T11:47:40;12.10;99.90
60293;DHT22;52402;52.670;6.750;2024-02-15T11:50:14;12.10;99.90
60293;DHT22;52402;52.670;6.750;2024-02-15T11:52:44;12.10;99.90
60293;DHT22;52402;52.670;6.750;2024-02-15T11:55:11;12.10;99.90
60293;DHT22;52402;52.670;6.750;2024-02-15T11:57:42;12.10;99.90
60293;DHT22;52402;52.670;6.750;2024-02-15T12:00:25;12.10;99.90
60293;DHT22;52402;52.670;6.750;2024-02-15T12:03:09;12.10;99.90
60293;DHT22;52402;52.670;6.750;2024-02-15T12:05:56;12.10;99.90
60293;DHT22;52402;52.670;6.750;2024-02-15T12:08:44;12.10;99.90
60293;DHT22;52402;52.670;6.750;2024-02-15T12:11:29;12.00;99.90
60293;DHT22;52402;52.670;6.750;2024-02-15T12:14:21;12.00;99.90
60293;DHT22;52402;52.670;6.750;2024-02-15T12:17:09;12.00;99.90
60293;DHT22;52402;52.670;6.750;2024-02-15T12:19:56;12.00;99.90
60293;DHT22;52402;52.670;6.750;2024-02-15T12:22:32;12.00;99.90
60293;DHT22;52402;52.670;6.750;2024-02-15T12:25:00;12.00;99.90
60293;DHT22;52402;52.670;6.750;2024-02-15T12:27:26;12.00;99.90
60293;DHT22;52402;52.670;6.750;2024-02-15T12:29:56;12.00;99.90
60293;DHT22;52402;52.670;6.750;2024-02-15T12:32:26;12.00;99.90
60293;DHT22;52402;52.670;6.750;2024-02-15T12:34:53;12.00;99.90
60293;DHT22;52402;52.670;6.750;2024-02-15T12:37:22;12.00;99.90
60293;DHT22;52402;52.670;6.750;2024-02-15T12:39:49;12.00;99.90
60293;DHT22;52402;52.670;6.750;2024-02-15T12:42:18;12.00;99.90
60293;DHT22;52402;52.670;6.750;2024-02-15T12:44:45;12.00;99.90
60293;DHT22;52402;52.670;6.750;2024-02-15T12:47:23;12.10;99.90
60293;DHT22;52402;52.670;6.750;2024-02-15T12:49:50;12.10;99.90
60293;DHT22;52402;52.670;6.750;2024-02-15T12:52:36;12.10;99.90
60293;DHT22;52402;52.670;6.750;2024-02-15T12:55:18;12.10;99.90
60293;DHT22;52402;52.670;6.750;2024-02-15T12:57:54;12.10;99.90
60293;DHT22;52402;52.670;6.750;2024-02-15T13:00:26;12.20;99.90
60293;DHT22;52402;52.670;6.750;2024-02-15T13:02:57;12.20;99.90
60293;DHT22;52402;52.670;6.750;2024-02-15T13:05:26;12.20;99.90
60293;DHT22;52402;52.670;6.750;2024-02-15T13:07:53;12.20;99.90
60293;DHT22;52402;52.670;6.750;2024-02-15T13:10:22;12.20;99.90
60293;DHT22;52402;52.670;6.750;2024-02-15T13:12:48;12.30;99.90
60293;DHT22;52402;52.670;6.750;2024-02-15T13:15:15;12.30;99.90
60293;DHT22;52402;52.670;6.750;2024-02-15T13:17:46;12.30;99.90
60293;DHT22;52402;52.670;6.750;2024-02-15T13:20:14;12.30;99.90
60293;DHT22;52402;52.670;6.750;2024-02-15T13:22:42;12.20;99.90
60293;DHT22;52402;52.670;6.750;2024-02-15T13:25:09;12.30;99.90
60293;DHT22;52402;52.670;6.750;2024-02-15T13:27:38;12.30;99.90
60293;DHT22;52402;52.670;6.750;2024-02-15T13:30:07;12.30;99.90
60293;DHT22;52402;52.670;6.750;2024-02-15T13:32:37;12.30;99.90
60293;DHT22;52402;52.670;6.750;2024-02-15T13:35:05;12.30;99.90
60293;DHT22;52402;52.670;6.750;2024-02-15T13:40:07;12.30;99.90
60293;DHT22;52402;52.670;6.750;2024-02-15T13:42:45;12.30;99.90
60293;DHT22;52402;52.670;6.750;2024-02-15T13:45:16;12.30;99.90
60293;DHT22;52402;52.670;6.750;2024-02-15T13:47:47;12.30;99.90
60293;DHT22;52402;52.670;6.750;2024-02-15T13:50:13;12.30;99.90
60293;DHT22;52402;52.670;6.750;2024-02-15T13:52:43;12.30;99.90
60293;DHT22;52402;52.670;6.750;2024-02-15T13:55:13;12.30;99.90
60293;DHT22;52402;52.670;6.750;2024-02-15T13:57:40;12.40;99.90
60293;DHT22;52402;52.670;6.750;2024-02-15T14:00:10;12.40;99.90
60293;DHT22;52402;52.670;6.750;2024-02-15T14:02:42;12.40;99.90
60293;DHT22;52402;52.670;6.750;2024-02-15T14:05:11;12.40;99.90
60293;DHT22;52402;52.670;6.750;2024-02-15T14:07:37;12.40;99.90
60293;DHT22;52402;52.670;6.750;2024-02-15T14:10:05;12.40;99.90
60293;DHT22;52402;52.670;6.750;2024-02-15T14:12:31;12.40;99.90
60293;DHT22;52402;52.670;6.750;2024-02-15T14:14:59;12.50;99.90
60293;DHT22;52402;52.670;6.750;2024-02-15T14:17:25;12.50;99.90
60293;DHT22;52402;52.670;6.750;2024-02-15T14:19:50;12.50;99.90
60293;DHT22;52402;52.670;6.750;2024-02-15T14:22:16;12.50;99.90
60293;DHT22;52402;52.670;6.750;2024-02-15T14:24:42;12.60;99.90
60293;DHT22;52402;52.670;6.750;2024-02-15T14:27:09;12.50;99.90
60293;DHT22;52402;52.670;6.750;2024-02-15T14:29:36;12.50;99.90
60293;DHT22;52402;52.670;6.750;2024-02-15T14:32:12;12.60;99.90
60293;DHT22;52402;52.670;6.750;2024-02-15T14:34:56;12.60;99.90
60293;DHT22;52402;52.670;6.750;2024-02-15T14:37:22;12.60;99.90
60293;DHT22;52402;52.670;6.750;2024-02-15T14:39:49;12.60;99.90
60293;DHT22;52402;52.670;6.750;2024-02-15T14:42:15;12.60;99.90
60293;DHT22;52402;52.670;6.750;2024-02-15T14:44:41;12.70;99.90
60293;DHT22;52402;52.670;6.750;2024-02-15T14:47:08;12.70;99.90
60293;DHT22;52402;52.670;6.750;2024-02-15T14:49:34;12.80;99.90
60293;DHT22;52402;52.670;6.750;2024-02-15T14:52:00;12.80;99.90
60293;DHT22;52402;52.670;6.750;2024-02-15T14:54:27;12.80;99.90
60293;DHT22;52402;52.670;6.750;2024-02-15T14:56:52;12.80;99.90
60293;DHT22;52402;52.670;6.750;2024-02-15T14:59:19;12.90;99.90
60293;DHT22;52402;52.670;6.750;2024-02-15T15:01:53;12.90;99.90
60293;DHT22;52402;52.670;6.750;2024-02-15T15:04:18;13.00;99.90
60293;DHT22;52402;52.670;6.750;2024-02-15T15:06:45;13.00;99.90
60293;DHT22;52402;52.670;6.750;2024-02-15T15:09:29;13.00;99.90
60293;DHT22;52402;52.670;6.750;2024-02-15T15:12:13;13.00;99.90
60293;DHT22;52402;52.670;6.750;2024-02-15T15:14:58;13.00;99.90
60293;DHT22;52402;52.670;6.750;2024-02-15T15:17:25;13.00;99.90
60293;DHT22;52402;52.670;6.750;2024-02-15T15:19:52;13.00;99.90
60293;DHT22;52402;52.670;6.750;2024-02-15T15:22:18;12.90;99.90
60293;DHT22;52402;52.670;6.750;2024-02-15T15:24:45;13.00;99.90
60293;DHT22;52402;52.670;6.750;2024-02-15T15:27:10;12.90;99.90
60293;DHT22;52402;52.670;6.750;2024-02-15T15:29:37;12.90;99.90
60293;DHT22;52402;52.670;6.750;2024-02-15T15:32:03;12.90;99.90
60293;DHT22;52402;52.670;6.750;2024-02-15T15:34:30;12.90;99.90
60293;DHT22;52402;52.670;6.750;2024-02-15T15:36:55;12.90;99.90
60293;DHT22;52402;52.670;6.750;2024-02-15T15:39:22;12.90;99.90
60293;DHT22;52402;52.670;6.750;2024-02-15T15:41:50;12.90;99.90
60293;DHT22;52402;52.670;6.750;2024-02-15T15:44:19;12.90;99.90
60293;DHT22;52402;52.670;6.750;2024-02-15T15:46:47;12.90;99.90
60293;DHT22;52402;52.670;6.750;2024-02-15T15:49:12;12.90;99.90